createdAt,value
2022-09-09T00:00:43.216Z,7.22
2022-09-09T00:03:20.905Z,6.10
2022-09-09T00:06:09.351Z,7.50
2022-09-09T00:08:49.547Z,4.93
2022-09-09T00:11:18.615Z,5.43
2022-09-09T00:13:49.193Z,5.22
2022-09-09T00:16:25.340Z,5.88
2022-09-09T00:19:22.268Z,6.28
2022-09-09T00:21:55.307Z,4.07
2022-09-09T00:24:31.209Z,4.72
2022-09-09T00:27:09.196Z,5.93
2022-09-09T00:29:56.664Z,7.13
2022-09-09T00:32:23.558Z,5.60
2022-09-09T00:34:57.824Z,6.40
2022-09-09T00:37:27.052Z,7.50
2022-09-09T00:39:57.437Z,7.07
2022-09-09T00:42:43.568Z,4.38
2022-09-09T00:45:17.102Z,6.10
2022-09-09T00:47:53.047Z,4.70
2022-09-09T00:50:57.409Z,5.50
2022-09-09T00:53:33.164Z,5.45
2022-09-09T00:56:22.773Z,7.15
2022-09-09T00:58:59.335Z,4.78
2022-09-09T01:01:26.208Z,4.57
2022-09-09T01:04:00.577Z,4.90
2022-09-09T01:06:34.347Z,6.93
2022-09-09T01:09:24.602Z,6.72
2022-09-09T01:12:17.094Z,5.65
2022-09-09T01:14:57.337Z,4.30
2022-09-09T01:18:02.458Z,5.32
2022-09-09T01:20:47.433Z,5.05
2022-09-09T01:23:36.088Z,6.45
2022-09-09T01:26:26.311Z,5.35
2022-09-09T01:28:56.048Z,4.37
2022-09-09T01:31:28.450Z,6.25
2022-09-09T01:33:55.393Z,5.95
2022-09-09T01:36:46.127Z,5.55
2022-09-09T01:39:13.184Z,4.07
2022-09-09T01:41:40.051Z,4.57
2022-09-09T01:44:07.366Z,7.28
2022-09-09T01:46:34.334Z,5.00
2022-09-09T01:49:01.549Z,8.80
2022-09-09T01:51:28.543Z,5.82
2022-09-09T01:53:55.425Z,6.50
2022-09-09T01:56:49.651Z,5.57
2022-09-09T01:59:37.724Z,5.45
2022-09-09T02:02:26.397Z,4.28
2022-09-09T02:05:00.138Z,5.25
2022-09-09T02:07:39.589Z,5.43
2022-09-09T02:10:16.536Z,6.88
2022-09-09T02:12:46.396Z,6.93
2022-09-09T02:15:26.165Z,9.27
2022-09-09T02:17:53.785Z,6.53
2022-09-09T02:20:21.057Z,5.23
2022-09-09T02:22:50.606Z,6.30
2022-09-09T02:25:19.346Z,8.40
2022-09-09T02:27:47.083Z,4.85
2022-09-09T02:30:14.004Z,5.47
2022-09-09T02:32:41.036Z,7.73
2022-09-09T02:35:13.188Z,4.28
2022-09-09T02:37:40.825Z,5.65
2022-09-09T02:40:09.553Z,5.07
2022-09-09T02:42:44.310Z,6.03
2022-09-09T02:45:12.808Z,4.83
2022-09-09T02:47:43.154Z,6.63
2022-09-09T02:50:21.128Z,5.53
2022-09-09T02:53:19.284Z,5.60
2022-09-09T02:56:10.513Z,6.95
2022-09-09T02:58:37.424Z,7.47
2022-09-09T03:01:04.422Z,5.57
2022-09-09T03:03:31.500Z,4.80
2022-09-09T03:05:58.324Z,6.13
2022-09-09T03:08:25.188Z,6.47
2022-09-09T03:10:55.435Z,6.07
2022-09-09T03:13:22.326Z,6.03
2022-09-09T03:15:49.761Z,8.25
2022-09-09T03:18:16.670Z,7.90
2022-09-09T03:20:43.709Z,6.78
2022-09-09T03:23:15.450Z,6.27
2022-09-09T03:25:49.355Z,7.13
2022-09-09T03:28:16.407Z,8.55
2022-09-09T03:30:43.310Z,8.40
2022-09-09T03:33:10.193Z,10.07
2022-09-09T03:35:37.344Z,8.57
2022-09-09T03:38:04.224Z,8.77
2022-09-09T03:40:32.129Z,7.45
2022-09-09T03:42:58.995Z,8.40
2022-09-09T03:45:25.944Z,12.23
2022-09-09T03:47:52.849Z,9.57
2022-09-09T03:50:19.907Z,9.52
2022-09-09T03:52:47.147Z,8.95
2022-09-09T03:55:14.028Z,10.55
2022-09-09T03:57:40.953Z,8.60
2022-09-09T04:00:08.810Z,11.10
2022-09-09T04:02:35.760Z,10.40
2022-09-09T04:05:02.787Z,10.93
2022-09-09T04:07:29.707Z,12.85
2022-09-09T04:09:56.587Z,11.10
2022-09-09T04:12:23.573Z,18.83
2022-09-09T04:14:50.393Z,12.90
2022-09-09T04:17:18.458Z,11.63
2022-09-09T04:19:45.386Z,10.73
2022-09-09T04:22:12.414Z,12.40
2022-09-09T04:24:39.434Z,13.17
2022-09-09T04:27:06.309Z,9.00
2022-09-09T04:29:33.099Z,10.23
2022-09-09T04:32:00.138Z,10.90
2022-09-09T04:34:27.108Z,9.95
2022-09-09T04:36:54.088Z,11.00
2022-09-09T04:39:20.987Z,11.38
2022-09-09T04:41:48.351Z,9.50
2022-09-09T04:44:15.511Z,11.02
2022-09-09T04:46:42.633Z,11.95
2022-09-09T04:49:14.466Z,9.93
2022-09-09T04:51:42.051Z,9.65
2022-09-09T04:54:09.007Z,10.35
2022-09-09T04:56:37.506Z,10.35
2022-09-09T04:59:04.418Z,9.65
2022-09-09T05:01:31.332Z,10.63
2022-09-09T05:03:58.887Z,12.02
2022-09-09T05:06:25.795Z,10.30
2022-09-09T05:08:52.811Z,9.18
2022-09-09T05:11:25.328Z,11.00
2022-09-09T05:13:52.454Z,11.30
2022-09-09T05:16:19.690Z,9.57
2022-09-09T05:18:50.593Z,10.77
2022-09-09T05:21:18.107Z,9.00
2022-09-09T05:23:46.448Z,10.00
2022-09-09T05:26:17.468Z,9.30
2022-09-09T05:28:44.930Z,8.13
2022-09-09T05:31:15.154Z,12.15
2022-09-09T05:33:44.103Z,10.60
2022-09-09T05:36:14.358Z,8.75
2022-09-09T05:38:41.850Z,9.60
2022-09-09T05:41:08.990Z,10.13
2022-09-09T05:43:36.869Z,8.93
2022-09-09T05:46:09.143Z,8.88
2022-09-09T05:48:43.173Z,8.77
2022-09-09T05:51:13.689Z,7.43
2022-09-09T05:53:40.537Z,10.30
2022-09-09T05:56:11.635Z,9.40
2022-09-09T05:58:39.287Z,7.15
2022-09-09T06:01:07.769Z,8.90
2022-09-09T06:03:38.810Z,7.47
2022-09-09T06:06:07.569Z,11.05
2022-09-09T06:08:39.663Z,7.05
2022-09-09T06:11:11.852Z,6.45
2022-09-09T06:13:39.995Z,7.10
2022-09-09T06:16:12.598Z,7.07
2022-09-09T06:18:40.294Z,7.47
2022-09-09T06:21:08.757Z,7.72
2022-09-09T06:23:38.605Z,7.97
2022-09-09T06:26:07.512Z,11.23
2022-09-09T06:28:35.032Z,7.33
2022-09-09T06:31:03.039Z,8.52
2022-09-09T06:33:36.089Z,8.55
2022-09-09T06:36:04.854Z,8.32
2022-09-09T06:38:31.704Z,7.43
2022-09-09T06:41:00.073Z,6.97
2022-09-09T06:43:27.406Z,7.78
2022-09-09T06:45:58.486Z,6.95
2022-09-09T06:48:27.097Z,9.35
2022-09-09T06:51:07.190Z,6.90
2022-09-09T06:53:37.433Z,7.47
2022-09-09T06:56:18.930Z,5.55
2022-09-09T06:58:46.186Z,8.23
2022-09-09T07:01:14.476Z,7.53
2022-09-09T07:03:41.833Z,6.75
2022-09-09T07:06:09.732Z,6.73
2022-09-09T07:08:36.698Z,7.13
2022-09-09T07:11:12.093Z,6.57
2022-09-09T07:13:39.371Z,5.53
2022-09-09T07:16:07.349Z,7.90
2022-09-09T07:18:34.609Z,5.83
2022-09-09T07:21:03.231Z,8.93
2022-09-09T07:23:35.590Z,6.45
2022-09-09T07:26:04.326Z,7.50
2022-09-09T07:28:32.270Z,8.20
2022-09-09T07:31:03.749Z,9.37
2022-09-09T07:33:34.515Z,8.02
2022-09-09T07:36:08.306Z,7.35
2022-09-09T07:38:46.395Z,7.40
2022-09-09T07:41:18.847Z,6.20
2022-09-09T07:43:46.807Z,6.50
2022-09-09T07:46:14.269Z,6.32
2022-09-09T07:48:48.217Z,6.15
2022-09-09T07:51:20.051Z,8.57
2022-09-09T07:53:47.649Z,8.52
2022-09-09T07:56:17.730Z,6.60
2022-09-09T07:58:46.625Z,7.57
2022-09-09T08:01:15.265Z,6.43
2022-09-09T08:03:42.229Z,6.18
2022-09-09T08:06:09.906Z,6.90
2022-09-09T08:08:37.314Z,6.37
2022-09-09T08:11:06.239Z,7.07
2022-09-09T08:13:33.218Z,6.28
2022-09-09T08:16:27.734Z,7.38
2022-09-09T08:18:55.276Z,6.80
2022-09-09T08:21:24.552Z,6.80
2022-09-09T08:23:57.635Z,8.13
2022-09-09T08:26:27.892Z,7.32
2022-09-09T08:28:56.186Z,8.40
2022-09-09T08:33:53.415Z,8.20
2022-09-09T08:36:26.774Z,8.63
2022-09-09T08:38:57.954Z,7.22
2022-09-09T08:41:46.446Z,9.30
2022-09-09T08:44:37.207Z,7.90
2022-09-09T08:47:07.671Z,8.03
2022-09-09T08:49:59.115Z,7.80
2022-09-09T08:52:53.892Z,6.22
2022-09-09T08:56:02.314Z,7.43
2022-09-09T08:58:30.615Z,7.45
2022-09-09T09:01:36.154Z,7.30
2022-09-09T09:04:28.679Z,7.78
2022-09-09T09:07:19.665Z,6.43
2022-09-09T09:10:30.601Z,6.13
2022-09-09T09:12:57.467Z,6.30
2022-09-09T09:15:32.683Z,8.30
2022-09-09T09:17:59.914Z,7.88
2022-09-09T09:20:40.567Z,7.18
2022-09-09T09:23:07.486Z,8.77
2022-09-09T09:25:39.670Z,8.93
2022-09-09T09:28:25.433Z,6.40
2022-09-09T09:31:10.242Z,8.70
2022-09-09T09:33:59.385Z,7.00
2022-09-09T09:36:35.412Z,6.35
2022-09-09T09:41:50.733Z,6.67
2022-09-09T09:44:31.974Z,8.50
2022-09-09T09:47:21.685Z,7.57
2022-09-09T09:50:03.717Z,8.90
2022-09-09T09:52:31.475Z,6.88
2022-09-09T09:55:02.890Z,7.20
2022-09-09T09:57:34.143Z,8.20
2022-09-09T10:00:20.494Z,8.10
2022-09-09T10:02:47.848Z,7.90
2022-09-09T10:05:26.918Z,7.70
2022-09-09T10:08:13.294Z,9.63
2022-09-09T10:10:57.108Z,9.02
2022-09-09T10:13:39.282Z,9.00
2022-09-09T10:16:22.110Z,9.82
2022-09-09T10:18:59.135Z,7.70
2022-09-09T10:21:40.072Z,6.87
2022-09-09T10:24:17.872Z,7.07
2022-09-09T10:27:06.103Z,8.10
2022-09-09T10:29:51.608Z,8.60
2022-09-09T10:32:56.857Z,7.97
2022-09-09T10:35:23.715Z,9.40
2022-09-09T10:38:15.432Z,9.60
2022-09-09T10:40:48.809Z,9.40
2022-09-09T10:43:31.629Z,9.05
2022-09-09T10:46:11.475Z,8.73
2022-09-09T10:48:48.823Z,10.10
2022-09-09T10:51:29.906Z,8.50
2022-09-09T10:54:22.553Z,11.02
2022-09-09T10:56:57.852Z,7.35
2022-09-09T10:59:30.468Z,9.52
2022-09-09T11:02:02.474Z,8.83
2022-09-09T11:04:35.578Z,9.60
2022-09-09T11:07:11.063Z,8.95
2022-09-09T11:09:42.607Z,10.10
2022-09-09T11:12:12.186Z,8.57
2022-09-09T11:14:51.148Z,9.80
2022-09-09T11:17:24.743Z,9.57
2022-09-09T11:19:52.039Z,9.80
2022-09-09T11:22:39.782Z,9.85
2022-09-09T11:25:12.037Z,9.35
2022-09-09T11:28:02.396Z,9.23
2022-09-09T11:30:57.132Z,10.02
2022-09-09T11:33:50.272Z,9.93
2022-09-09T11:36:54.450Z,11.50
2022-09-09T11:39:47.608Z,11.60
2022-09-09T11:42:14.503Z,9.23
2022-09-09T11:44:41.492Z,8.88
2022-09-09T11:47:30.603Z,8.88
2022-09-09T11:50:24.426Z,11.40
2022-09-09T11:52:51.576Z,9.48
2022-09-09T11:55:38.011Z,9.87
2022-09-09T11:58:25.671Z,10.13
2022-09-09T12:00:53.392Z,10.10
2022-09-09T12:03:44.787Z,9.45
2022-09-09T12:06:29.031Z,10.07
2022-09-09T12:08:58.797Z,9.67
2022-09-09T12:11:27.665Z,11.38
2022-09-09T12:13:59.694Z,10.48
2022-09-09T12:16:35.541Z,11.07
2022-09-09T12:19:16.986Z,11.20
2022-09-09T12:21:59.412Z,12.03
2022-09-09T12:24:55.313Z,9.82
2022-09-09T12:27:34.131Z,10.82
2022-09-09T12:30:05.111Z,13.43
2022-09-09T12:32:32.157Z,11.85
2022-09-09T12:35:04.905Z,12.13
2022-09-09T12:37:36.593Z,12.20
2022-09-09T12:40:05.228Z,12.68
2022-09-09T12:42:37.928Z,10.73
2022-09-09T12:45:20.424Z,10.60
2022-09-09T12:47:53.053Z,10.93
2022-09-09T12:50:25.532Z,13.38
2022-09-09T12:52:53.340Z,12.68
2022-09-09T12:55:22.743Z,13.20
2022-09-09T12:57:51.333Z,12.93
2022-09-09T13:00:21.589Z,12.97
2022-09-09T13:03:00.111Z,12.45
2022-09-09T13:05:37.366Z,11.38
2022-09-09T13:08:05.452Z,12.52
2022-09-09T13:10:52.826Z,10.93
2022-09-09T13:13:44.115Z,12.33
2022-09-09T13:16:36.612Z,12.52
2022-09-09T13:19:15.971Z,12.35
2022-09-09T13:21:43.700Z,16.58
2022-09-09T13:24:30.673Z,12.60
2022-09-09T13:26:59.113Z,12.40
2022-09-09T13:29:26.078Z,13.25
2022-09-09T13:31:56.906Z,13.77
2022-09-09T13:34:31.628Z,13.30
2022-09-09T13:37:06.998Z,13.88
2022-09-09T13:39:37.680Z,14.27
2022-09-09T13:42:05.032Z,14.10
2022-09-09T13:44:39.681Z,16.83
2022-09-09T13:47:10.783Z,16.20
2022-09-09T13:49:37.920Z,14.35
2022-09-09T13:52:15.528Z,14.67
2022-09-09T13:54:42.934Z,16.42
2022-09-09T13:57:28.608Z,15.68
2022-09-09T14:00:06.520Z,16.83
2022-09-09T14:02:34.794Z,16.73
2022-09-09T14:05:02.027Z,16.50
2022-09-09T14:07:29.491Z,16.83
2022-09-09T14:09:56.586Z,15.82
2022-09-09T14:12:23.552Z,16.30
2022-09-09T14:14:51.399Z,15.35
2022-09-09T14:17:18.656Z,13.87
2022-09-09T14:19:47.102Z,14.82
2022-09-09T14:22:14.015Z,15.05
2022-09-09T14:24:41.090Z,17.92
2022-09-09T14:27:08.050Z,14.77
2022-09-09T14:29:34.969Z,16.43
2022-09-09T14:32:02.151Z,16.83
2022-09-09T14:34:29.066Z,16.63
2022-09-09T14:36:56.906Z,17.77
2022-09-09T14:39:23.805Z,18.25
2022-09-09T14:41:50.725Z,19.10
2022-09-09T14:44:17.605Z,18.63
2022-09-09T14:46:44.543Z,17.02
2022-09-09T14:49:11.492Z,17.25
2022-09-09T14:51:38.425Z,18.83
2022-09-09T14:54:05.509Z,17.93
2022-09-09T14:56:33.430Z,18.65
2022-09-09T14:59:01.927Z,18.08
2022-09-09T15:01:29.158Z,16.63
2022-09-09T15:03:59.105Z,20.52
2022-09-09T15:06:27.559Z,20.00
2022-09-09T15:08:54.806Z,19.95
2022-09-09T15:11:21.914Z,18.67
2022-09-09T15:13:49.556Z,19.27
2022-09-09T15:16:18.017Z,20.60
2022-09-09T15:18:46.070Z,21.00
2022-09-09T15:21:17.254Z,21.90
2022-09-09T15:23:44.333Z,23.83
2022-09-09T15:26:11.593Z,21.63
2022-09-09T15:28:39.200Z,20.38
2022-09-09T15:31:15.602Z,20.20
2022-09-09T15:33:42.668Z,23.38
2022-09-09T15:36:23.198Z,20.70
2022-09-09T15:38:50.367Z,22.23
2022-09-09T15:41:17.754Z,20.45
2022-09-09T15:43:48.336Z,23.37
2022-09-09T15:46:18.285Z,24.35
2022-09-09T15:48:47.359Z,20.67
2022-09-09T15:51:40.003Z,20.27
2022-09-09T15:54:03.033Z,22.98
2022-09-09T15:56:31.570Z,25.13
2022-09-09T15:58:58.875Z,22.52
2022-09-09T16:01:26.351Z,21.95
2022-09-09T16:03:53.491Z,22.00
2022-09-09T16:06:22.510Z,23.58
2022-09-09T16:08:53.907Z,26.40
2022-09-09T16:11:25.205Z,24.55
2022-09-09T16:13:52.906Z,25.08
2022-09-09T16:16:23.154Z,25.38
2022-09-09T16:18:52.922Z,23.88
2022-09-09T16:21:30.275Z,25.47
2022-09-09T16:23:58.047Z,24.55
2022-09-09T16:26:24.972Z,26.70
2022-09-09T16:29:01.172Z,29.10
2022-09-09T16:31:28.631Z,30.77
2022-09-09T16:33:55.617Z,32.00
2022-09-09T16:36:26.732Z,31.45
2022-09-09T16:38:55.771Z,28.03
2022-09-09T16:41:23.150Z,28.50
2022-09-09T16:43:57.171Z,30.90
2022-09-09T16:46:25.566Z,30.85
2022-09-09T16:48:52.740Z,30.15
2022-09-09T16:51:26.981Z,34.33
2022-09-09T16:53:54.489Z,29.85
2022-09-09T16:56:28.226Z,31.33
2022-09-09T16:58:59.209Z,33.85
2022-09-09T17:01:27.132Z,30.02
2022-09-09T17:04:01.196Z,30.07
2022-09-09T17:06:30.229Z,34.97
2022-09-09T17:09:02.403Z,32.13
2022-09-09T17:11:29.751Z,30.10
2022-09-09T17:13:57.041Z,31.55
2022-09-09T17:16:24.618Z,30.53
2022-09-09T17:18:51.971Z,29.20
2022-09-09T17:21:20.795Z,28.95
2022-09-09T17:23:47.848Z,36.17
2022-09-09T17:26:16.698Z,29.65
2022-09-09T17:28:43.886Z,30.80
2022-09-09T17:31:12.030Z,33.75
2022-09-09T17:33:40.071Z,32.17
2022-09-09T17:36:12.336Z,34.45
2022-09-09T17:38:39.481Z,42.67
2022-09-09T17:41:08.721Z,32.87
2022-09-09T17:43:36.948Z,35.88
2022-09-09T17:46:08.325Z,32.25
2022-09-09T17:48:37.783Z,37.83
2022-09-09T17:51:11.811Z,35.85
2022-09-09T17:53:44.084Z,36.67
2022-09-09T17:56:12.297Z,37.15
2022-09-09T17:58:39.484Z,38.83
2022-09-09T18:01:07.966Z,37.85
2022-09-09T18:03:36.583Z,46.08
2022-09-09T18:06:08.410Z,38.93
2022-09-09T18:08:37.004Z,37.97
2022-09-09T18:11:04.468Z,42.88
2022-09-09T18:13:31.462Z,37.65
2022-09-09T18:15:58.773Z,41.83
2022-09-09T18:18:25.959Z,38.53
2022-09-09T18:21:06.686Z,40.53
2022-09-09T18:23:49.431Z,42.78
2022-09-09T18:26:18.032Z,44.30
2022-09-09T18:28:48.726Z,45.38
2022-09-09T18:31:16.653Z,42.10
2022-09-09T18:33:46.552Z,42.53
2022-09-09T18:36:15.250Z,38.88
2022-09-09T18:38:42.607Z,40.08
2022-09-09T18:41:28.849Z,41.28
2022-09-09T18:43:58.290Z,37.13
2022-09-09T18:46:26.036Z,38.25
2022-09-09T18:48:53.026Z,39.20
2022-09-09T18:51:21.349Z,41.22
2022-09-09T18:53:55.185Z,37.38
2022-09-09T18:56:22.395Z,41.53
2022-09-09T18:58:53.245Z,42.25
2022-09-09T19:01:20.282Z,38.15
2022-09-09T19:03:47.329Z,38.65
2022-09-09T19:06:15.785Z,39.40
2022-09-09T19:08:43.653Z,36.83
2022-09-09T19:11:13.122Z,35.47
2022-09-09T19:13:40.055Z,37.15
2022-09-09T19:16:08.208Z,38.42
2022-09-09T19:18:36.846Z,40.38
2022-09-09T19:21:18.336Z,36.20
2022-09-09T19:23:48.666Z,36.67
2022-09-09T19:26:17.132Z,34.97
2022-09-09T19:28:47.089Z,36.20
2022-09-09T19:31:17.793Z,36.47
2022-09-09T19:33:48.249Z,33.30
2022-09-09T19:36:17.954Z,34.65
2022-09-09T19:38:46.297Z,34.08
2022-09-09T19:41:21.576Z,36.22
2022-09-09T19:43:49.570Z,33.47
2022-09-09T19:46:18.510Z,36.30
2022-09-09T19:48:46.024Z,33.72
2022-09-09T19:51:17.366Z,33.55
2022-09-09T19:53:53.175Z,32.05
2022-09-09T19:56:23.309Z,34.78
2022-09-09T19:58:50.319Z,31.70
2022-09-09T20:01:25.310Z,34.85
2022-09-09T20:03:53.356Z,33.10
2022-09-09T20:06:28.330Z,32.38
2022-09-09T20:08:55.649Z,28.13
2022-09-09T20:11:22.586Z,30.43
2022-09-09T20:13:49.710Z,31.20
2022-09-09T20:16:19.053Z,33.58
2022-09-09T20:18:47.874Z,30.35
2022-09-09T20:21:16.427Z,32.20
2022-09-09T20:23:44.037Z,34.10
2022-09-09T20:26:13.101Z,31.52
2022-09-09T20:28:40.948Z,30.90
2022-09-09T20:31:14.012Z,30.27
2022-09-09T20:33:41.641Z,33.40
2022-09-09T20:36:11.770Z,30.23
2022-09-09T20:38:49.212Z,31.73
2022-09-09T20:41:18.724Z,33.33
2022-09-09T20:43:49.212Z,32.08
2022-09-09T20:46:24.035Z,31.52
2022-09-09T20:48:51.580Z,33.17
2022-09-09T20:51:19.938Z,33.60
2022-09-09T20:53:47.560Z,35.63
2022-09-09T20:56:17.072Z,33.22
2022-09-09T20:58:44.023Z,33.45
2022-09-09T21:01:14.589Z,35.60
2022-09-09T21:03:41.474Z,36.25
2022-09-09T21:06:08.645Z,31.00
2022-09-09T21:08:36.840Z,32.33
2022-09-09T21:11:04.373Z,32.05
2022-09-09T21:13:32.249Z,34.10
2022-09-09T21:15:59.375Z,31.73
2022-09-09T21:18:27.554Z,33.00
2022-09-09T21:20:54.534Z,34.35
2022-09-09T21:23:22.090Z,32.95
2022-09-09T21:25:49.947Z,36.43
2022-09-09T21:28:17.038Z,35.13
2022-09-09T21:30:48.211Z,32.47
2022-09-09T21:33:15.190Z,33.97
2022-09-09T21:35:42.306Z,31.83
2022-09-09T21:38:15.870Z,32.27
2022-09-09T21:40:43.292Z,33.13
2022-09-09T21:43:11.330Z,34.08
2022-09-09T21:45:41.695Z,34.05
2022-09-09T21:48:10.371Z,36.42
2022-09-09T21:50:41.334Z,35.00
2022-09-09T21:53:10.269Z,37.45
2022-09-09T21:55:38.011Z,37.97
2022-09-09T21:58:05.296Z,38.22
2022-09-09T22:00:32.230Z,34.83
2022-09-09T22:03:00.023Z,34.17
2022-09-09T22:05:27.006Z,36.20
2022-09-09T22:07:54.429Z,37.25
2022-09-09T22:10:21.809Z,37.17
2022-09-09T22:12:49.073Z,38.35
2022-09-09T22:15:15.992Z,35.13
2022-09-09T22:17:42.958Z,32.97
2022-09-09T22:20:12.295Z,39.42
2022-09-09T22:22:39.433Z,37.35
2022-09-09T22:25:07.351Z,33.08
2022-09-09T22:27:34.207Z,35.30
2022-09-09T22:30:01.107Z,34.83
2022-09-09T22:32:27.950Z,34.10
2022-09-09T22:34:54.865Z,34.85
2022-09-09T22:37:23.007Z,34.97
2022-09-09T22:39:49.939Z,32.27
2022-09-09T22:42:18.188Z,33.95
2022-09-09T22:44:45.051Z,32.45
2022-09-09T22:47:11.904Z,31.35
2022-09-09T22:49:38.747Z,31.27
2022-09-09T22:52:05.707Z,33.70
2022-09-09T22:54:32.555Z,34.10
2022-09-09T22:56:59.511Z,34.25
2022-09-09T22:59:26.684Z,30.92
2022-09-09T23:01:53.620Z,32.78
2022-09-09T23:04:23.386Z,27.13
2022-09-09T23:06:50.408Z,30.85
2022-09-09T23:09:18.025Z,31.67
2022-09-09T23:11:46.986Z,29.65
2022-09-09T23:14:14.305Z,29.73
2022-09-09T23:16:43.934Z,28.50
2022-09-09T23:19:15.923Z,27.20
2022-09-09T23:21:44.248Z,28.52
2022-09-09T23:24:12.760Z,26.80
2022-09-09T23:26:40.026Z,26.45
2022-09-09T23:29:06.885Z,26.87
2022-09-09T23:31:38.021Z,28.77
2022-09-09T23:34:05.069Z,27.50
2022-09-09T23:36:31.985Z,29.17
2022-09-09T23:39:00.067Z,29.30
2022-09-09T23:41:27.763Z,24.40
2022-09-09T23:43:55.026Z,29.38
2022-09-09T23:46:23.757Z,28.85
2022-09-09T23:48:53.365Z,27.73
2022-09-09T23:51:24.147Z,25.73
2022-09-09T23:53:55.944Z,25.07
2022-09-09T23:56:25.126Z,27.30
2022-09-09T23:58:52.220Z,23.20
